createdAt,value
2023-05-22T00:02:39.275Z,18.37
2023-05-22T00:05:41.803Z,21.25
2023-05-22T00:08:44.728Z,18.00
2023-05-22T00:11:47.507Z,20.17
2023-05-22T00:14:49.851Z,20.85
2023-05-22T00:17:54.212Z,19.30
2023-05-22T00:20:56.578Z,21.33
2023-05-22T00:23:58.615Z,18.73
2023-05-22T00:27:00.562Z,18.75
2023-05-22T00:30:02.784Z,17.85
2023-05-22T00:33:04.961Z,17.00
2023-05-22T00:36:07.288Z,22.37
2023-05-22T00:39:09.928Z,19.77
2023-05-22T00:42:12.331Z,19.90
2023-05-22T00:45:15.709Z,16.73
2023-05-22T00:48:17.658Z,18.10
2023-05-22T00:51:24.237Z,19.52
2023-05-22T00:54:26.437Z,17.33
2023-05-22T00:57:28.846Z,19.95
2023-05-22T01:00:34.353Z,20.35
2023-05-22T01:03:42.496Z,19.17
2023-05-22T01:06:47.915Z,17.42
2023-05-22T01:09:56.318Z,17.67
2023-05-22T01:13:04.821Z,16.90
2023-05-22T01:16:12.891Z,18.62
2023-05-22T01:19:39.563Z,17.17
2023-05-22T01:23:08.950Z,18.65
2023-05-22T01:26:14.207Z,16.37
2023-05-22T01:29:28.255Z,16.80
2023-05-22T01:32:32.610Z,17.73
2023-05-22T01:35:38.697Z,24.20
2023-05-22T01:38:42.745Z,18.40
2023-05-22T01:41:45.639Z,19.50
2023-05-22T01:44:50.513Z,20.27
2023-05-22T01:47:52.484Z,19.90
2023-05-22T01:50:56.314Z,19.33
2023-05-22T01:54:06.258Z,17.60
2023-05-22T01:57:26.988Z,20.20
2023-05-22T02:00:30.195Z,19.15
2023-05-22T02:03:35.389Z,17.80
2023-05-22T02:06:38.855Z,19.75
2023-05-22T02:09:41.325Z,17.67
2023-05-22T02:12:44.007Z,19.03
2023-05-22T02:15:47.361Z,19.23
2023-05-22T02:18:49.734Z,17.75
2023-05-22T02:21:51.823Z,21.15
2023-05-22T02:24:53.783Z,19.08
2023-05-22T02:27:55.739Z,19.83
2023-05-22T02:30:57.916Z,20.52
2023-05-22T02:34:00.019Z,20.25
2023-05-22T02:37:06.335Z,23.65
2023-05-22T02:40:10.233Z,21.27
2023-05-22T02:43:12.240Z,19.80
2023-05-22T02:46:14.436Z,22.52
2023-05-22T02:49:16.498Z,23.20
2023-05-22T02:52:18.776Z,22.00
2023-05-22T02:55:21.190Z,23.12
2023-05-22T02:58:25.228Z,20.63
2023-05-22T03:01:27.326Z,22.02
2023-05-22T03:04:29.738Z,20.00
2023-05-22T03:07:31.978Z,20.50
2023-05-22T03:10:33.974Z,20.35
2023-05-22T03:13:36.390Z,21.50
2023-05-22T03:16:38.389Z,22.23
2023-05-22T03:19:40.541Z,21.98
2023-05-22T03:22:43.284Z,23.62
2023-05-22T03:25:45.324Z,23.45
2023-05-22T03:28:47.515Z,23.30
2023-05-22T03:31:49.563Z,23.80
2023-05-22T03:34:51.573Z,22.08
2023-05-22T03:37:53.475Z,22.25
2023-05-22T03:40:55.487Z,20.65
2023-05-22T03:43:58.480Z,21.37
2023-05-22T03:47:00.466Z,21.37
2023-05-22T03:50:02.423Z,19.60
2023-05-22T03:53:04.427Z,19.35
2023-05-22T03:56:06.668Z,22.20
2023-05-22T03:59:08.753Z,20.40
2023-05-22T04:02:13.093Z,23.25
2023-05-22T04:05:15.311Z,22.40
2023-05-22T04:08:17.943Z,26.80
2023-05-22T04:11:21.099Z,24.10
2023-05-22T04:14:23.139Z,24.53
2023-05-22T04:17:31.105Z,21.45
2023-05-22T04:20:33.390Z,23.05
2023-05-22T04:23:36.052Z,22.60
2023-05-22T04:26:40.466Z,24.37
2023-05-22T04:29:45.096Z,24.80
2023-05-22T04:32:47.126Z,22.87
2023-05-22T04:35:49.131Z,24.85
2023-05-22T04:38:51.123Z,22.10
2023-05-22T04:41:53.146Z,21.48
2023-05-22T04:44:58.175Z,26.13
2023-05-22T04:48:02.755Z,24.05
2023-05-22T04:51:06.375Z,21.73
2023-05-22T04:54:08.345Z,27.15
2023-05-22T04:57:10.583Z,24.73
2023-05-22T05:00:14.521Z,22.33
2023-05-22T05:03:16.728Z,20.02
2023-05-22T05:06:21.692Z,19.92
2023-05-22T05:09:24.805Z,20.50
2023-05-22T05:12:26.755Z,21.83
2023-05-22T05:15:29.636Z,19.63
2023-05-22T05:18:31.741Z,19.08
2023-05-22T05:21:33.729Z,20.58
2023-05-22T05:24:35.713Z,22.87
2023-05-22T05:27:37.651Z,20.15
2023-05-22T05:30:40.375Z,17.63
2023-05-22T05:33:42.553Z,19.10
2023-05-22T05:36:44.536Z,18.60
2023-05-22T05:39:46.691Z,23.83
2023-05-22T05:42:48.890Z,18.00
2023-05-22T05:45:51.217Z,21.63
2023-05-22T05:48:53.221Z,19.05
2023-05-22T05:51:55.544Z,20.75
2023-05-22T05:54:57.647Z,20.08
2023-05-22T05:57:59.913Z,17.42
2023-05-22T06:01:02.917Z,17.97
2023-05-22T06:04:05.661Z,19.05
2023-05-22T06:07:08.079Z,18.05
2023-05-22T06:10:11.049Z,17.73
2023-05-22T06:13:13.590Z,18.62
2023-05-22T06:16:15.749Z,16.07
2023-05-22T06:19:17.870Z,15.52
2023-05-22T06:22:19.836Z,13.52
2023-05-22T06:25:23.026Z,13.70
2023-05-22T06:28:25.133Z,17.30
2023-05-22T06:31:28.211Z,15.70
2023-05-22T06:34:30.187Z,13.30
2023-05-22T06:37:35.778Z,13.70
2023-05-22T06:40:38.041Z,12.85
2023-05-22T06:43:40.251Z,14.27
2023-05-22T06:46:42.275Z,33.03
2023-05-22T06:49:44.293Z,14.38
2023-05-22T06:52:46.345Z,15.20
2023-05-22T06:55:48.506Z,13.50
2023-05-22T06:58:50.519Z,13.40
2023-05-22T07:01:52.492Z,15.10
2023-05-22T07:04:54.637Z,12.98
2023-05-22T07:07:56.913Z,12.95
2023-05-22T07:10:58.968Z,13.85
2023-05-22T07:14:02.068Z,13.35
2023-05-22T07:17:04.219Z,12.43
2023-05-22T07:20:07.062Z,14.70
2023-05-22T07:23:09.392Z,13.62
2023-05-22T07:26:11.454Z,13.02
2023-05-22T07:29:17.019Z,11.20
2023-05-22T07:32:19.010Z,11.67
2023-05-22T07:35:21.042Z,13.52
2023-05-22T07:38:23.024Z,10.18
2023-05-22T07:41:27.309Z,10.18
2023-05-22T07:44:29.347Z,9.40
2023-05-22T07:47:31.459Z,10.57
2023-05-22T07:50:33.733Z,9.50
2023-05-22T07:53:36.428Z,9.93
2023-05-22T07:56:41.699Z,9.77
2023-05-22T07:59:44.283Z,10.18
2023-05-22T08:02:46.578Z,11.43
2023-05-22T08:05:48.865Z,8.88
2023-05-22T08:08:53.146Z,10.80
2023-05-22T08:11:55.177Z,11.98
2023-05-22T08:14:57.162Z,10.45
2023-05-22T08:17:59.199Z,10.70
2023-05-22T08:21:01.517Z,9.90
2023-05-22T08:24:03.639Z,12.25
2023-05-22T08:27:05.931Z,10.35
2023-05-22T08:30:08.498Z,10.50
2023-05-22T08:33:10.466Z,10.00
2023-05-22T08:36:13.319Z,10.75
2023-05-22T08:39:15.333Z,9.80
2023-05-22T08:42:17.381Z,10.65
2023-05-22T08:45:20.131Z,10.85
2023-05-22T08:48:23.550Z,10.40
2023-05-22T08:51:31.559Z,9.88
2023-05-22T08:54:36.968Z,9.40
2023-05-22T08:57:39.210Z,10.35
2023-05-22T09:00:41.948Z,10.18
2023-05-22T09:03:45.650Z,8.80
2023-05-22T09:06:47.729Z,9.65
2023-05-22T09:09:49.851Z,11.07
2023-05-22T09:13:05.782Z,11.32
2023-05-22T09:16:09.961Z,10.60
2023-05-22T09:19:13.458Z,9.70
2023-05-22T09:22:16.788Z,12.15
2023-05-22T09:25:19.930Z,9.73
2023-05-22T09:28:22.045Z,10.45
2023-05-22T09:31:24.156Z,9.80
2023-05-22T09:34:30.287Z,10.03
2023-05-22T09:37:36.652Z,11.55
2023-05-22T09:43:50.184Z,9.68
2023-05-22T09:46:52.185Z,9.98
2023-05-22T09:49:58.658Z,9.40
2023-05-22T09:53:05.209Z,10.48
2023-05-22T09:56:14.673Z,9.85
2023-05-22T09:59:22.668Z,9.07
2023-05-22T10:02:26.604Z,9.88
2023-05-22T10:05:31.612Z,9.63
2023-05-22T10:08:43.588Z,9.90
2023-05-22T10:11:46.495Z,10.50
2023-05-22T10:14:48.817Z,10.30
2023-05-22T10:17:51.114Z,9.27
2023-05-22T10:20:53.759Z,8.60
2023-05-22T10:23:56.102Z,10.68
2023-05-22T10:26:58.194Z,8.90
2023-05-22T10:30:13.589Z,10.32
2023-05-22T10:33:21.489Z,10.23
2023-05-22T10:36:40.013Z,9.90
2023-05-22T10:40:00.847Z,9.55
2023-05-22T10:43:04.355Z,9.07
2023-05-22T10:46:07.571Z,9.25
2023-05-22T10:49:09.750Z,9.38
2023-05-22T10:52:14.619Z,10.20
2023-05-22T10:55:22.836Z,11.02
2023-05-22T10:58:32.738Z,10.65
2023-05-22T11:01:38.718Z,10.82
2023-05-22T11:04:40.939Z,11.88
2023-05-22T11:07:42.973Z,10.90
2023-05-22T11:10:55.959Z,9.32
2023-05-22T11:14:04.402Z,10.10
2023-05-22T11:17:06.818Z,9.57
2023-05-22T11:20:18.325Z,9.20
2023-05-22T11:23:20.493Z,8.30
2023-05-22T11:26:26.442Z,10.25
2023-05-22T11:29:31.202Z,9.25
2023-05-22T11:32:39.029Z,9.68
2023-05-22T11:35:43.317Z,11.18
2023-05-22T11:38:45.577Z,10.00
2023-05-22T11:41:47.722Z,10.57
2023-05-22T11:44:49.916Z,9.38
2023-05-22T11:47:52.060Z,10.85
2023-05-22T11:50:54.108Z,9.52
2023-05-22T11:53:57.516Z,8.90
2023-05-22T11:56:59.575Z,12.82
2023-05-22T12:00:02.299Z,11.07
2023-05-22T12:03:04.570Z,10.50
2023-05-22T12:06:08.524Z,10.77
2023-05-22T12:09:11.160Z,8.97
2023-05-22T12:12:15.595Z,9.27
2023-05-22T12:15:21.269Z,8.13
2023-05-22T12:18:23.448Z,8.82
2023-05-22T12:21:27.287Z,8.48
2023-05-22T12:24:41.921Z,8.27
2023-05-22T12:27:45.763Z,8.95
2023-05-22T12:30:53.722Z,8.68
2023-05-22T12:33:56.543Z,10.70
2023-05-22T12:36:58.489Z,10.68
2023-05-22T12:40:03.666Z,8.47
2023-05-22T12:43:05.704Z,8.95
2023-05-22T12:46:07.794Z,10.43
2023-05-22T12:49:10.678Z,8.20
2023-05-22T12:52:13.372Z,8.55
2023-05-22T12:55:15.323Z,8.67
2023-05-22T12:58:17.482Z,8.30
2023-05-22T13:01:19.602Z,9.23
2023-05-22T13:04:21.758Z,8.73
2023-05-22T13:07:23.751Z,11.20
2023-05-22T13:10:26.009Z,8.87
2023-05-22T13:13:27.993Z,9.48
2023-05-22T13:16:31.140Z,8.52
2023-05-22T13:19:33.583Z,10.15
2023-05-22T13:22:35.766Z,9.68
2023-05-22T13:25:38.049Z,8.63
2023-05-22T13:28:40.124Z,9.60
2023-05-22T13:31:42.073Z,8.77
2023-05-22T13:34:44.105Z,10.00
2023-05-22T13:37:46.520Z,9.18
2023-05-22T13:40:48.994Z,9.80
2023-05-22T13:43:51.029Z,8.35
2023-05-22T13:46:53.122Z,10.20
2023-05-22T13:49:55.188Z,10.30
2023-05-22T13:52:57.132Z,10.20
2023-05-22T13:55:59.070Z,9.70
2023-05-22T13:59:01.003Z,9.07
2023-05-22T14:02:03.285Z,8.80
2023-05-22T14:05:05.789Z,8.30
2023-05-22T14:08:07.866Z,9.13
2023-05-22T14:11:10.151Z,8.97
2023-05-22T14:14:12.182Z,8.40
2023-05-22T14:17:14.202Z,12.27
2023-05-22T14:20:16.325Z,9.02
2023-05-22T14:23:18.357Z,9.00
2023-05-22T14:26:21.386Z,8.73
2023-05-22T14:29:25.790Z,8.40
2023-05-22T14:32:27.878Z,9.50
2023-05-22T14:35:29.935Z,8.98
2023-05-22T14:38:36.381Z,9.05
2023-05-22T14:41:38.395Z,10.00
2023-05-22T14:44:40.400Z,11.25
2023-05-22T14:47:43.497Z,12.05
2023-05-22T14:50:46.884Z,8.95
2023-05-22T14:53:48.960Z,7.85
2023-05-22T14:56:50.990Z,9.27
2023-05-22T14:59:53.057Z,10.20
2023-05-22T15:02:55.090Z,8.80
2023-05-22T15:05:57.529Z,9.80
2023-05-22T15:08:59.528Z,8.40
2023-05-22T15:12:01.503Z,8.67
2023-05-22T15:15:03.815Z,10.05
2023-05-22T15:18:06.116Z,8.05
2023-05-22T15:21:08.190Z,8.35
2023-05-22T15:24:10.114Z,8.23
2023-05-22T15:27:12.290Z,8.57
2023-05-22T15:30:17.105Z,8.45
2023-05-22T15:33:19.519Z,9.82
2023-05-22T15:36:21.737Z,9.75
2023-05-22T15:39:23.955Z,8.10
2023-05-22T15:42:26.050Z,9.33
2023-05-22T15:45:28.070Z,10.10
2023-05-22T15:48:32.471Z,9.98
2023-05-22T15:51:35.717Z,10.00
2023-05-22T15:54:37.700Z,8.13
2023-05-22T15:57:39.702Z,8.23
2023-05-22T16:00:41.827Z,8.95
2023-05-22T16:03:43.913Z,9.13
2023-05-22T16:06:46.304Z,8.90
2023-05-22T16:09:50.308Z,9.23
2023-05-22T16:12:52.315Z,9.27
2023-05-22T16:15:54.308Z,10.52
2023-05-22T16:18:56.310Z,8.43
2023-05-22T16:21:58.295Z,10.05
2023-05-22T16:25:00.296Z,8.80
2023-05-22T16:28:02.318Z,10.73
2023-05-22T16:31:06.293Z,10.15
2023-05-22T16:34:08.321Z,10.85
2023-05-22T16:37:10.286Z,9.73
2023-05-22T16:40:12.522Z,9.35
2023-05-22T16:43:14.991Z,8.90
2023-05-22T16:46:17.170Z,14.23
2023-05-22T16:49:19.331Z,10.45
2023-05-22T16:52:23.535Z,9.68
2023-05-22T16:55:25.763Z,9.88
2023-05-22T16:58:27.794Z,10.43
2023-05-22T17:01:30.032Z,12.23
2023-05-22T17:04:31.994Z,11.48
2023-05-22T17:07:34.533Z,11.30
2023-05-22T17:10:36.658Z,9.73
2023-05-22T17:13:38.747Z,9.30
2023-05-22T17:16:40.811Z,10.93
2023-05-22T17:19:42.885Z,11.07
2023-05-22T17:22:44.906Z,11.00
2023-05-22T17:25:47.184Z,10.55
2023-05-22T17:28:49.157Z,13.07
2023-05-22T17:31:51.157Z,11.23
2023-05-22T17:34:53.657Z,10.60
2023-05-22T17:37:55.767Z,11.60
2023-05-22T17:40:58.040Z,11.23
2023-05-22T17:44:01.855Z,11.60
2023-05-22T17:47:04.632Z,11.18
2023-05-22T17:50:07.202Z,12.37
2023-05-22T17:53:09.372Z,11.50
2023-05-22T17:56:11.428Z,12.25
2023-05-22T17:59:13.461Z,11.27
2023-05-22T18:02:15.844Z,11.43
2023-05-22T18:05:18.015Z,14.00
2023-05-22T18:08:21.665Z,13.23
2023-05-22T18:11:24.173Z,13.75
2023-05-22T18:14:26.159Z,14.83
2023-05-22T18:17:28.179Z,15.95
2023-05-22T18:20:30.415Z,13.93
2023-05-22T18:23:32.401Z,13.05
2023-05-22T18:26:34.781Z,13.77
2023-05-22T18:29:37.543Z,13.93
2023-05-22T18:32:40.126Z,13.88
2023-05-22T18:35:42.273Z,13.98
2023-05-22T18:38:44.653Z,13.80
2023-05-22T18:41:46.782Z,12.18
2023-05-22T18:44:49.701Z,12.20
2023-05-22T18:47:52.114Z,13.02
2023-05-22T18:50:57.353Z,11.43
2023-05-22T18:53:59.558Z,12.23
2023-05-22T18:57:01.978Z,12.55
2023-05-22T19:00:05.321Z,13.70
2023-05-22T19:03:11.331Z,12.23
2023-05-22T19:06:15.453Z,12.77
2023-05-22T19:09:18.357Z,11.60
2023-05-22T19:12:21.629Z,14.13
2023-05-22T19:15:25.754Z,11.57
2023-05-22T19:18:29.204Z,11.43
2023-05-22T19:21:32.897Z,12.32
2023-05-22T19:24:36.522Z,12.05
2023-05-22T19:27:39.676Z,12.40
2023-05-22T19:30:44.817Z,14.10
2023-05-22T19:33:58.295Z,13.27
2023-05-22T19:37:02.510Z,13.70
2023-05-22T19:40:35.066Z,13.95
2023-05-22T19:43:39.414Z,17.95
2023-05-22T19:47:03.819Z,20.43
2023-05-22T19:50:08.589Z,20.98
2023-05-22T19:53:14.965Z,21.10
2023-05-22T19:56:19.364Z,24.02
2023-05-22T19:59:27.107Z,19.25
2023-05-22T20:02:31.869Z,21.93
2023-05-22T20:05:41.827Z,17.98
2023-05-22T20:08:44.524Z,15.13
2023-05-22T20:11:48.564Z,15.65
2023-05-22T20:14:52.943Z,14.50
2023-05-22T20:18:02.699Z,17.03
2023-05-22T20:21:10.105Z,15.68
2023-05-22T20:24:25.216Z,13.85
2023-05-22T20:27:27.296Z,13.35
2023-05-22T20:30:29.475Z,16.40
2023-05-22T20:33:31.966Z,13.67
2023-05-22T20:36:35.131Z,14.68
2023-05-22T20:39:37.630Z,16.58
2023-05-22T20:42:41.197Z,13.43
2023-05-22T20:45:45.806Z,16.75
2023-05-22T20:48:48.346Z,14.13
2023-05-22T20:51:51.025Z,13.68
2023-05-22T20:54:53.000Z,16.00
2023-05-22T20:57:55.186Z,14.75
2023-05-22T21:00:57.799Z,13.25
2023-05-22T21:04:00.068Z,16.40
2023-05-22T21:07:02.150Z,16.30
2023-05-22T21:10:04.754Z,14.85
2023-05-22T21:13:07.136Z,15.77
2023-05-22T21:16:09.151Z,14.27
2023-05-22T21:19:11.299Z,13.70
2023-05-22T21:22:13.373Z,14.68
2023-05-22T21:25:15.544Z,16.08
2023-05-22T21:28:17.523Z,14.45
2023-05-22T21:31:19.526Z,16.35
2023-05-22T21:34:21.589Z,15.27
2023-05-22T21:37:23.512Z,13.18
2023-05-22T21:40:26.814Z,14.80
2023-05-22T21:43:28.803Z,15.63
2023-05-22T21:46:31.707Z,16.12
2023-05-22T21:49:33.862Z,15.43
2023-05-22T21:52:35.963Z,14.63
2023-05-22T21:55:38.056Z,16.87
2023-05-22T21:58:40.005Z,14.30
2023-05-22T22:01:42.147Z,14.43
2023-05-22T22:04:44.145Z,15.30
2023-05-22T22:07:46.248Z,14.40
2023-05-22T22:10:48.179Z,14.68
2023-05-22T22:13:50.087Z,13.88
2023-05-22T22:16:54.633Z,17.37
2023-05-22T22:19:57.221Z,14.80
2023-05-22T22:22:59.290Z,18.10
2023-05-22T22:26:01.299Z,15.10
2023-05-22T22:29:03.262Z,15.05
2023-05-22T22:32:05.645Z,15.93
2023-05-22T22:35:08.076Z,15.30
2023-05-22T22:38:10.016Z,14.80
2023-05-22T22:41:12.111Z,14.90
2023-05-22T22:44:14.106Z,15.18
2023-05-22T22:47:16.160Z,16.90
2023-05-22T22:50:18.276Z,14.70
2023-05-22T22:53:20.238Z,15.20
2023-05-22T22:56:24.221Z,14.70
2023-05-22T22:59:26.169Z,14.27
2023-05-22T23:02:28.104Z,16.12
2023-05-22T23:05:30.626Z,14.80
2023-05-22T23:08:32.580Z,14.73
2023-05-22T23:11:37.807Z,17.80
2023-05-22T23:14:39.847Z,15.68
2023-05-22T23:17:42.258Z,17.95
2023-05-22T23:20:44.331Z,15.40
2023-05-22T23:23:46.316Z,16.62
2023-05-22T23:26:48.375Z,15.48
2023-05-22T23:29:50.379Z,17.02
2023-05-22T23:32:52.428Z,17.42
2023-05-22T23:35:54.482Z,16.67
2023-05-22T23:38:56.501Z,15.68
2023-05-22T23:42:02.242Z,17.33
2023-05-22T23:45:04.748Z,16.48
2023-05-22T23:48:06.761Z,14.73
2023-05-22T23:51:14.575Z,16.80
2023-05-22T23:54:17.010Z,16.58
2023-05-22T23:57:19.031Z,17.98
